Crescent Valley, Washington
Current Conditions -  °F | °C
As of 11:53 PM on Monday 20 Oct 2014 (Local Time) from KTIW Reporting Station
Overcast Overcast  
Wind Chill: 55°   Ceiling: 6500
Heat Index: 55°   Visibility: 10mi
Dew Point: 50°   Wind: 7mph
Humidity: 83%   Direction: 170°S
Pressure: 29.81"   Gusts: NA
Location:  47.2986°N, 122.616°W
Report Text: KTIW 210653Z AUTO 17006KT 10SM OVC065 13/10 A2981 RMK AO2 SLP092 T01280100
Loading
Personal Weather Stations






























Interactive Weather Map
Tropical Storm Tracking
New forecast layout! Learn more

10-Day Weather Forecast

Advertisements
Track Severe Weather on mobile